sensor_id;sensor_type;location;lat;lon;timestamp;temperature;humidity
2387;DHT22;49473;50.772;8.768;2022-09-02T00:01:56;16.70;95.00
2387;DHT22;49473;50.772;8.768;2022-09-02T00:04:24;16.60;95.30
2387;DHT22;49473;50.772;8.768;2022-09-02T00:06:53;16.60;95.70
2387;DHT22;49473;50.772;8.768;2022-09-02T00:09:22;16.50;95.80
2387;DHT22;49473;50.772;8.768;2022-09-02T00:11:51;16.50;96.00
2387;DHT22;49473;50.772;8.768;2022-09-02T00:14:20;16.40;96.30
2387;DHT22;49473;50.772;8.768;2022-09-02T00:16:48;16.30;96.70
2387;DHT22;49473;50.772;8.768;2022-09-02T00:19:17;16.20;97.00
2387;DHT22;49473;50.772;8.768;2022-09-02T00:21:44;16.20;97.20
2387;DHT22;49473;50.772;8.768;2022-09-02T00:24:13;16.10;97.30
2387;DHT22;49473;50.772;8.768;2022-09-02T00:26:40;16.00;97.50
2387;DHT22;49473;50.772;8.768;2022-09-02T00:29:07;16.00;97.80
2387;DHT22;49473;50.772;8.768;2022-09-02T00:31:33;15.90;98.00
2387;DHT22;49473;50.772;8.768;2022-09-02T00:34:01;16.00;98.30
2387;DHT22;49473;50.772;8.768;2022-09-02T00:36:28;16.00;98.60
2387;DHT22;49473;50.772;8.768;2022-09-02T00:38:55;15.90;98.60
2387;DHT22;49473;50.772;8.768;2022-09-02T00:41:26;15.80;98.70
2387;DHT22;49473;50.772;8.768;2022-09-02T00:43:56;15.80;99.00
2387;DHT22;49473;50.772;8.768;2022-09-02T00:46:26;15.80;99.30
2387;DHT22;49473;50.772;8.768;2022-09-02T00:48:56;15.70;99.80
2387;DHT22;49473;50.772;8.768;2022-09-02T00:51:26;15.70;99.90
2387;DHT22;49473;50.772;8.768;2022-09-02T00:53:53;15.70;99.90
2387;DHT22;49473;50.772;8.768;2022-09-02T00:56:24;15.70;99.90
2387;DHT22;49473;50.772;8.768;2022-09-02T00:58:53;15.70;99.90
2387;DHT22;49473;50.772;8.768;2022-09-02T01:01:20;15.60;99.90
2387;DHT22;49473;50.772;8.768;2022-09-02T01:03:48;15.70;99.90
2387;DHT22;49473;50.772;8.768;2022-09-02T01:06:19;15.70;99.90
2387;DHT22;49473;50.772;8.768;2022-09-02T01:08:48;15.80;99.90
2387;DHT22;49473;50.772;8.768;2022-09-02T01:11:18;15.80;99.90
2387;DHT22;49473;50.772;8.768;2022-09-02T01:13:48;15.90;99.90
2387;DHT22;49473;50.772;8.768;2022-09-02T01:16:21;15.90;99.90
2387;DHT22;49473;50.772;8.768;2022-09-02T01:18:51;15.80;99.90
2387;DHT22;49473;50.772;8.768;2022-09-02T01:21:19;15.70;99.90
2387;DHT22;49473;50.772;8.768;2022-09-02T01:23:48;15.70;99.90
2387;DHT22;49473;50.772;8.768;2022-09-02T01:26:15;15.70;99.90
2387;DHT22;49473;50.772;8.768;2022-09-02T01:28:43;15.70;99.90
2387;DHT22;49473;50.772;8.768;2022-09-02T01:31:09;15.70;99.90
2387;DHT22;49473;50.772;8.768;2022-09-02T01:33:36;15.70;99.90
2387;DHT22;49473;50.772;8.768;2022-09-02T01:36:04;15.70;99.90
2387;DHT22;49473;50.772;8.768;2022-09-02T01:38:31;15.70;99.90
2387;DHT22;49473;50.772;8.768;2022-09-02T01:40:59;15.70;99.90
2387;DHT22;49473;50.772;8.768;2022-09-02T01:43:26;15.60;99.90
2387;DHT22;49473;50.772;8.768;2022-09-02T01:45:55;15.60;99.90
2387;DHT22;49473;50.772;8.768;2022-09-02T01:48:22;15.70;99.90
2387;DHT22;49473;50.772;8.768;2022-09-02T01:50:51;15.70;99.90
2387;DHT22;49473;50.772;8.768;2022-09-02T01:53:18;15.70;99.90
2387;DHT22;49473;50.772;8.768;2022-09-02T01:55:45;15.70;99.90
2387;DHT22;49473;50.772;8.768;2022-09-02T01:58:14;15.70;99.90
2387;DHT22;49473;50.772;8.768;2022-09-02T02:00:41;15.70;99.90
2387;DHT22;49473;50.772;8.768;2022-09-02T02:03:08;15.60;99.90
2387;DHT22;49473;50.772;8.768;2022-09-02T02:05:34;15.60;99.90
2387;DHT22;49473;50.772;8.768;2022-09-02T02:08:02;15.60;99.90
2387;DHT22;49473;50.772;8.768;2022-09-02T02:10:29;15.60;99.90
2387;DHT22;49473;50.772;8.768;2022-09-02T02:12:56;15.60;99.90
2387;DHT22;49473;50.772;8.768;2022-09-02T02:15:24;15.70;99.90
2387;DHT22;49473;50.772;8.768;2022-09-02T02:17:51;15.80;99.90
2387;DHT22;49473;50.772;8.768;2022-09-02T02:20:19;15.70;99.90
2387;DHT22;49473;50.772;8.768;2022-09-02T02:22:47;15.70;99.90
2387;DHT22;49473;50.772;8.768;2022-09-02T02:25:15;15.70;99.90
2387;DHT22;49473;50.772;8.768;2022-09-02T02:27:42;15.70;99.90
2387;DHT22;49473;50.772;8.768;2022-09-02T02:30:10;15.70;99.90
2387;DHT22;49473;50.772;8.768;2022-09-02T02:32:39;15.80;99.90
2387;DHT22;49473;50.772;8.768;2022-09-02T02:35:08;15.80;99.90
2387;DHT22;49473;50.772;8.768;2022-09-02T02:37:35;15.80;99.90
2387;DHT22;49473;50.772;8.768;2022-09-02T02:40:04;15.90;99.90
2387;DHT22;49473;50.772;8.768;2022-09-02T02:42:31;15.80;99.90
2387;DHT22;49473;50.772;8.768;2022-09-02T02:44:57;15.70;99.90
2387;DHT22;49473;50.772;8.768;2022-09-02T02:47:24;15.60;99.90
2387;DHT22;49473;50.772;8.768;2022-09-02T02:49:53;15.60;99.90
2387;DHT22;49473;50.772;8.768;2022-09-02T02:52:20;15.60;99.90
2387;DHT22;49473;50.772;8.768;2022-09-02T02:54:46;15.60;99.90
2387;DHT22;49473;50.772;8.768;2022-09-02T02:57:13;15.60;99.90
2387;DHT22;49473;50.772;8.768;2022-09-02T02:59:40;15.60;99.90
2387;DHT22;49473;50.772;8.768;2022-09-02T03:02:07;15.50;99.90
2387;DHT22;49473;50.772;8.768;2022-09-02T03:04:34;15.50;99.90
2387;DHT22;49473;50.772;8.768;2022-09-02T03:07:02;15.50;99.90
2387;DHT22;49473;50.772;8.768;2022-09-02T03:09:31;15.40;99.90
2387;DHT22;49473;50.772;8.768;2022-09-02T03:11:58;15.40;99.90
2387;DHT22;49473;50.772;8.768;2022-09-02T03:14:25;15.40;99.90
2387;DHT22;49473;50.772;8.768;2022-09-02T03:16:52;15.50;99.90
2387;DHT22;49473;50.772;8.768;2022-09-02T03:19:19;15.50;99.90
2387;DHT22;49473;50.772;8.768;2022-09-02T03:21:46;15.30;99.90
2387;DHT22;49473;50.772;8.768;2022-09-02T03:24:14;15.20;99.90
2387;DHT22;49473;50.772;8.768;2022-09-02T03:26:41;15.10;99.90
2387;DHT22;49473;50.772;8.768;2022-09-02T03:29:08;15.10;99.90
2387;DHT22;49473;50.772;8.768;2022-09-02T03:31:36;15.10;99.90
2387;DHT22;49473;50.772;8.768;2022-09-02T03:34:03;15.00;99.90
2387;DHT22;49473;50.772;8.768;2022-09-02T03:36:32;15.10;99.90
2387;DHT22;49473;50.772;8.768;2022-09-02T03:39:00;15.00;99.90
2387;DHT22;49473;50.772;8.768;2022-09-02T03:41:28;15.00;99.90
2387;DHT22;49473;50.772;8.768;2022-09-02T03:43:55;14.90;99.90
2387;DHT22;49473;50.772;8.768;2022-09-02T03:46:22;14.90;99.90
2387;DHT22;49473;50.772;8.768;2022-09-02T03:48:49;14.90;99.90
2387;DHT22;49473;50.772;8.768;2022-09-02T03:51:17;14.90;99.90
2387;DHT22;49473;50.772;8.768;2022-09-02T03:53:44;14.80;99.90
2387;DHT22;49473;50.772;8.768;2022-09-02T03:56:12;14.70;99.90
2387;DHT22;49473;50.772;8.768;2022-09-02T03:58:42;14.70;99.90
2387;DHT22;49473;50.772;8.768;2022-09-02T04:01:13;14.70;99.90
2387;DHT22;49473;50.772;8.768;2022-09-02T04:03:40;14.70;99.90
2387;DHT22;49473;50.772;8.768;2022-09-02T04:06:08;14.70;99.90
2387;DHT22;49473;50.772;8.768;2022-09-02T04:08:36;14.60;99.90
2387;DHT22;49473;50.772;8.768;2022-09-02T04:11:05;14.40;99.90
2387;DHT22;49473;50.772;8.768;2022-09-02T04:13:32;14.40;99.90
2387;DHT22;49473;50.772;8.768;2022-09-02T04:16:05;14.30;99.90
2387;DHT22;49473;50.772;8.768;2022-09-02T04:18:32;14.20;99.90
2387;DHT22;49473;50.772;8.768;2022-09-02T04:20:59;14.10;99.90
2387;DHT22;49473;50.772;8.768;2022-09-02T04:23:26;14.00;99.90
2387;DHT22;49473;50.772;8.768;2022-09-02T04:25:54;14.00;99.90
2387;DHT22;49473;50.772;8.768;2022-09-02T04:28:20;13.90;99.90
2387;DHT22;49473;50.772;8.768;2022-09-02T04:30:47;13.90;99.90
2387;DHT22;49473;50.772;8.768;2022-09-02T04:33:16;13.80;99.90
2387;DHT22;49473;50.772;8.768;2022-09-02T04:35:44;13.80;99.90
2387;DHT22;49473;50.772;8.768;2022-09-02T04:38:12;13.80;99.90
2387;DHT22;49473;50.772;8.768;2022-09-02T04:40:39;13.80;99.90
2387;DHT22;49473;50.772;8.768;2022-09-02T04:43:07;13.80;99.90
2387;DHT22;49473;50.772;8.768;2022-09-02T04:45:34;13.80;99.90
2387;DHT22;49473;50.772;8.768;2022-09-02T04:48:04;13.80;99.90
2387;DHT22;49473;50.772;8.768;2022-09-02T04:50:32;13.80;99.90
2387;DHT22;49473;50.772;8.768;2022-09-02T04:53:00;13.80;99.90
2387;DHT22;49473;50.772;8.768;2022-09-02T04:55:27;13.80;99.90
2387;DHT22;49473;50.772;8.768;2022-09-02T04:57:54;13.80;99.90
2387;DHT22;49473;50.772;8.768;2022-09-02T05:00:21;13.80;99.90
2387;DHT22;49473;50.772;8.768;2022-09-02T05:02:48;13.90;99.90
2387;DHT22;49473;50.772;8.768;2022-09-02T05:05:15;13.90;99.90
2387;DHT22;49473;50.772;8.768;2022-09-02T05:07:43;13.90;99.90
2387;DHT22;49473;50.772;8.768;2022-09-02T05:10:10;13.80;99.90
2387;DHT22;49473;50.772;8.768;2022-09-02T05:12:39;13.80;99.90
2387;DHT22;49473;50.772;8.768;2022-09-02T05:15:07;13.90;99.90
2387;DHT22;49473;50.772;8.768;2022-09-02T05:17:34;13.90;99.90
2387;DHT22;49473;50.772;8.768;2022-09-02T05:20:01;13.90;99.90
2387;DHT22;49473;50.772;8.768;2022-09-02T05:22:28;13.90;99.90
2387;DHT22;49473;50.772;8.768;2022-09-02T05:24:56;14.00;99.90
2387;DHT22;49473;50.772;8.768;2022-09-02T05:27:23;14.00;99.90
2387;DHT22;49473;50.772;8.768;2022-09-02T05:29:53;14.00;99.90
2387;DHT22;49473;50.772;8.768;2022-09-02T05:32:20;14.10;99.90
2387;DHT22;49473;50.772;8.768;2022-09-02T05:34:47;14.10;99.90
2387;DHT22;49473;50.772;8.768;2022-09-02T05:37:14;14.10;99.90
2387;DHT22;49473;50.772;8.768;2022-09-02T05:39:41;14.10;99.90
2387;DHT22;49473;50.772;8.768;2022-09-02T05:42:10;14.20;99.90
2387;DHT22;49473;50.772;8.768;2022-09-02T05:44:37;14.20;99.90
2387;DHT22;49473;50.772;8.768;2022-09-02T05:47:04;14.30;99.90
2387;DHT22;49473;50.772;8.768;2022-09-02T05:49:31;14.40;99.90
2387;DHT22;49473;50.772;8.768;2022-09-02T05:51:59;14.50;99.90
2387;DHT22;49473;50.772;8.768;2022-09-02T05:54:28;14.60;99.90
2387;DHT22;49473;50.772;8.768;2022-09-02T05:56:58;14.60;99.90
2387;DHT22;49473;50.772;8.768;2022-09-02T05:59:28;14.80;99.90
2387;DHT22;49473;50.772;8.768;2022-09-02T06:01:57;14.90;99.90
2387;DHT22;49473;50.772;8.768;2022-09-02T06:04:24;15.10;99.90
2387;DHT22;49473;50.772;8.768;2022-09-02T06:06:51;15.30;99.90
2387;DHT22;49473;50.772;8.768;2022-09-02T06:09:20;15.40;99.90
2387;DHT22;49473;50.772;8.768;2022-09-02T06:11:47;15.40;99.90
2387;DHT22;49473;50.772;8.768;2022-09-02T06:14:15;15.60;99.90
2387;DHT22;49473;50.772;8.768;2022-09-02T06:16:45;15.70;99.90
2387;DHT22;49473;50.772;8.768;2022-09-02T06:19:12;15.80;99.90
2387;DHT22;49473;50.772;8.768;2022-09-02T06:21:39;16.00;99.90
2387;DHT22;49473;50.772;8.768;2022-09-02T06:24:07;16.20;99.90
2387;DHT22;49473;50.772;8.768;2022-09-02T06:26:35;16.50;99.90
2387;DHT22;49473;50.772;8.768;2022-09-02T06:29:02;16.50;99.90
2387;DHT22;49473;50.772;8.768;2022-09-02T06:31:30;16.60;99.90
2387;DHT22;49473;50.772;8.768;2022-09-02T06:33:59;16.60;99.90
2387;DHT22;49473;50.772;8.768;2022-09-02T06:36:27;16.80;99.90
2387;DHT22;49473;50.772;8.768;2022-09-02T06:38:56;16.90;99.90
2387;DHT22;49473;50.772;8.768;2022-09-02T06:41:26;17.00;99.90
2387;DHT22;49473;50.772;8.768;2022-09-02T06:43:55;17.20;99.90
2387;DHT22;49473;50.772;8.768;2022-09-02T06:46:24;17.20;99.90
2387;DHT22;49473;50.772;8.768;2022-09-02T06:48:51;17.20;99.90
2387;DHT22;49473;50.772;8.768;2022-09-02T06:51:22;17.30;99.90
2387;DHT22;49473;50.772;8.768;2022-09-02T06:53:50;17.10;99.90
2387;DHT22;49473;50.772;8.768;2022-09-02T06:56:17;17.20;99.90
2387;DHT22;49473;50.772;8.768;2022-09-02T06:58:44;17.30;99.90
2387;DHT22;49473;50.772;8.768;2022-09-02T07:01:17;17.30;99.90
2387;DHT22;49473;50.772;8.768;2022-09-02T07:03:44;17.40;99.90
2387;DHT22;49473;50.772;8.768;2022-09-02T07:06:32;17.40;99.90
2387;DHT22;49473;50.772;8.768;2022-09-02T07:09:02;17.50;99.90
2387;DHT22;49473;50.772;8.768;2022-09-02T07:11:29;17.50;99.90
2387;DHT22;49473;50.772;8.768;2022-09-02T07:13:55;17.60;99.90
2387;DHT22;49473;50.772;8.768;2022-09-02T07:16:24;17.80;99.90
2387;DHT22;49473;50.772;8.768;2022-09-02T07:18:51;17.80;99.90
2387;DHT22;49473;50.772;8.768;2022-09-02T07:21:18;17.60;99.90
2387;DHT22;49473;50.772;8.768;2022-09-02T07:23:46;17.50;99.90
2387;DHT22;49473;50.772;8.768;2022-09-02T07:26:14;17.70;99.90
2387;DHT22;49473;50.772;8.768;2022-09-02T07:28:42;17.80;99.90
2387;DHT22;49473;50.772;8.768;2022-09-02T07:31:09;17.80;99.90
2387;DHT22;49473;50.772;8.768;2022-09-02T07:33:36;17.80;99.90
2387;DHT22;49473;50.772;8.768;2022-09-02T07:36:03;17.70;99.90
2387;DHT22;49473;50.772;8.768;2022-09-02T07:38:30;17.80;99.90
2387;DHT22;49473;50.772;8.768;2022-09-02T07:40:59;17.80;99.90
2387;DHT22;49473;50.772;8.768;2022-09-02T07:43:27;17.90;99.90
2387;DHT22;49473;50.772;8.768;2022-09-02T07:45:56;18.00;99.90
2387;DHT22;49473;50.772;8.768;2022-09-02T07:48:25;18.10;99.90
2387;DHT22;49473;50.772;8.768;2022-09-02T07:50:53;18.30;99.90
2387;DHT22;49473;50.772;8.768;2022-09-02T07:53:20;18.60;99.90
2387;DHT22;49473;50.772;8.768;2022-09-02T07:55:48;18.70;99.90
2387;DHT22;49473;50.772;8.768;2022-09-02T07:58:17;18.70;99.90
2387;DHT22;49473;50.772;8.768;2022-09-02T08:00:45;19.00;99.90
2387;DHT22;49473;50.772;8.768;2022-09-02T08:03:14;19.00;99.90
2387;DHT22;49473;50.772;8.768;2022-09-02T08:05:41;18.90;99.90
2387;DHT22;49473;50.772;8.768;2022-09-02T08:08:09;18.90;99.90
2387;DHT22;49473;50.772;8.768;2022-09-02T08:10:37;19.00;99.90
2387;DHT22;49473;50.772;8.768;2022-09-02T08:13:04;19.20;99.90
2387;DHT22;49473;50.772;8.768;2022-09-02T08:15:34;19.40;99.90
2387;DHT22;49473;50.772;8.768;2022-09-02T08:18:04;19.70;99.90
2387;DHT22;49473;50.772;8.768;2022-09-02T08:20:31;19.80;99.90
2387;DHT22;49473;50.772;8.768;2022-09-02T08:22:59;20.00;99.90
2387;DHT22;49473;50.772;8.768;2022-09-02T08:25:26;20.30;99.90
2387;DHT22;49473;50.772;8.768;2022-09-02T08:27:53;20.50;99.90
2387;DHT22;49473;50.772;8.768;2022-09-02T08:30:20;20.80;99.90
2387;DHT22;49473;50.772;8.768;2022-09-02T08:32:49;20.70;99.90
2387;DHT22;49473;50.772;8.768;2022-09-02T08:35:15;21.00;99.90
2387;DHT22;49473;50.772;8.768;2022-09-02T08:37:42;21.50;99.90
2387;DHT22;49473;50.772;8.768;2022-09-02T08:40:13;21.80;99.90
2387;DHT22;49473;50.772;8.768;2022-09-02T08:42:44;22.20;99.90
2387;DHT22;49473;50.772;8.768;2022-09-02T08:45:13;22.70;99.90
2387;DHT22;49473;50.772;8.768;2022-09-02T08:47:46;23.00;99.90
2387;DHT22;49473;50.772;8.768;2022-09-02T08:50:17;23.10;99.90
2387;DHT22;49473;50.772;8.768;2022-09-02T08:52:54;23.10;99.80
2387;DHT22;49473;50.772;8.768;2022-09-02T08:55:26;23.00;99.30
2387;DHT22;49473;50.772;8.768;2022-09-02T08:57:54;23.20;98.90
2387;DHT22;49473;50.772;8.768;2022-09-02T09:00:21;23.30;98.10
2387;DHT22;49473;50.772;8.768;2022-09-02T09:02:55;23.90;98.20
2387;DHT22;49473;50.772;8.768;2022-09-02T09:05:39;25.90;95.60
2387;DHT22;49473;50.772;8.768;2022-09-02T09:08:18;27.50;92.00
2387;DHT22;49473;50.772;8.768;2022-09-02T09:10:53;30.20;81.60
2387;DHT22;49473;50.772;8.768;2022-09-02T09:13:45;30.90;78.80
2387;DHT22;49473;50.772;8.768;2022-09-02T09:16:18;31.70;72.50
2387;DHT22;49473;50.772;8.768;2022-09-02T09:18:57;30.90;68.50
2387;DHT22;49473;50.772;8.768;2022-09-02T09:21:29;32.60;65.60
2387;DHT22;49473;50.772;8.768;2022-09-02T09:23:57;33.00;65.70
2387;DHT22;49473;50.772;8.768;2022-09-02T09:26:27;33.30;60.20
2387;DHT22;49473;50.772;8.768;2022-09-02T09:28:55;31.60;60.90
2387;DHT22;49473;50.772;8.768;2022-09-02T09:31:28;32.80;61.40
2387;DHT22;49473;50.772;8.768;2022-09-02T09:34:00;33.00;59.00
2387;DHT22;49473;50.772;8.768;2022-09-02T09:36:49;31.10;59.70
2387;DHT22;49473;50.772;8.768;2022-09-02T09:39:20;30.70;61.10
2387;DHT22;49473;50.772;8.768;2022-09-02T09:41:48;30.70;61.60
2387;DHT22;49473;50.772;8.768;2022-09-02T09:44:36;30.50;61.10
2387;DHT22;49473;50.772;8.768;2022-09-02T09:47:05;30.20;62.20
2387;DHT22;49473;50.772;8.768;2022-09-02T09:49:33;31.30;62.00
2387;DHT22;49473;50.772;8.768;2022-09-02T09:52:01;30.60;59.80
2387;DHT22;49473;50.772;8.768;2022-09-02T09:54:29;28.40;62.20
2387;DHT22;49473;50.772;8.768;2022-09-02T09:57:11;27.30;65.40
2387;DHT22;49473;50.772;8.768;2022-09-02T09:59:40;26.50;67.20
2387;DHT22;49473;50.772;8.768;2022-09-02T10:02:21;25.40;69.50
2387;DHT22;49473;50.772;8.768;2022-09-02T10:04:49;24.80;72.90
2387;DHT22;49473;50.772;8.768;2022-09-02T10:07:33;24.80;73.30
2387;DHT22;49473;50.772;8.768;2022-09-02T10:10:11;24.60;73.40
2387;DHT22;49473;50.772;8.768;2022-09-02T10:12:41;24.50;73.70
2387;DHT22;49473;50.772;8.768;2022-09-02T10:15:09;24.70;74.40
2387;DHT22;49473;50.772;8.768;2022-09-02T10:17:42;24.60;73.80
2387;DHT22;49473;50.772;8.768;2022-09-02T10:20:15;24.60;74.00
2387;DHT22;49473;50.772;8.768;2022-09-02T10:23:04;24.70;74.60
2387;DHT22;49473;50.772;8.768;2022-09-02T10:25:45;25.00;74.80
2387;DHT22;49473;50.772;8.768;2022-09-02T10:28:25;24.80;73.30
2387;DHT22;49473;50.772;8.768;2022-09-02T10:31:03;24.60;73.70
2387;DHT22;49473;50.772;8.768;2022-09-02T10:33:38;24.10;74.10
2387;DHT22;49473;50.772;8.768;2022-09-02T10:36:12;24.30;74.20
2387;DHT22;49473;50.772;8.768;2022-09-02T10:38:44;24.50;73.30
2387;DHT22;49473;50.772;8.768;2022-09-02T10:41:25;24.80;72.50
2387;DHT22;49473;50.772;8.768;2022-09-02T10:44:26;25.30;72.30
2387;DHT22;49473;50.772;8.768;2022-09-02T10:46:59;25.50;70.80
2387;DHT22;49473;50.772;8.768;2022-09-02T10:49:53;25.60;69.90
2387;DHT22;49473;50.772;8.768;2022-09-02T10:52:43;25.20;67.30
2387;DHT22;49473;50.772;8.768;2022-09-02T10:55:17;25.40;65.50
2387;DHT22;49473;50.772;8.768;2022-09-02T10:57:51;25.20;64.40
2387;DHT22;49473;50.772;8.768;2022-09-02T11:00:20;25.10;63.40
2387;DHT22;49473;50.772;8.768;2022-09-02T11:02:52;24.50;63.90
2387;DHT22;49473;50.772;8.768;2022-09-02T11:05:23;24.40;63.60
2387;DHT22;49473;50.772;8.768;2022-09-02T11:07:54;25.10;64.10
2387;DHT22;49473;50.772;8.768;2022-09-02T11:10:27;26.20;61.90
2387;DHT22;49473;50.772;8.768;2022-09-02T11:12:59;26.10;60.30
2387;DHT22;49473;50.772;8.768;2022-09-02T11:15:39;25.40;61.00
2387;DHT22;49473;50.772;8.768;2022-09-02T11:18:12;25.10;61.60
2387;DHT22;49473;50.772;8.768;2022-09-02T11:20:47;24.90;62.80
2387;DHT22;49473;50.772;8.768;2022-09-02T11:23:25;25.10;62.40
2387;DHT22;49473;50.772;8.768;2022-09-02T11:25:58;25.40;61.70
2387;DHT22;49473;50.772;8.768;2022-09-02T11:28:31;24.80;62.50
2387;DHT22;49473;50.772;8.768;2022-09-02T11:31:05;24.50;63.60
2387;DHT22;49473;50.772;8.768;2022-09-02T11:33:42;24.20;64.20
2387;DHT22;49473;50.772;8.768;2022-09-02T11:36:11;24.00;64.50
2387;DHT22;49473;50.772;8.768;2022-09-02T11:38:41;24.10;65.30
2387;DHT22;49473;50.772;8.768;2022-09-02T11:41:27;25.00;65.10
2387;DHT22;49473;50.772;8.768;2022-09-02T11:44:04;27.00;60.90
2387;DHT22;49473;50.772;8.768;2022-09-02T11:46:55;28.20;58.70
2387;DHT22;49473;50.772;8.768;2022-09-02T11:49:38;27.50;58.30
2387;DHT22;49473;50.772;8.768;2022-09-02T11:52:22;26.50;59.10
2387;DHT22;49473;50.772;8.768;2022-09-02T11:54:57;25.90;59.90
2387;DHT22;49473;50.772;8.768;2022-09-02T11:57:27;25.40;60.70
2387;DHT22;49473;50.772;8.768;2022-09-02T12:00:11;25.20;62.00
2387;DHT22;49473;50.772;8.768;2022-09-02T12:02:42;26.80;60.70
2387;DHT22;49473;50.772;8.768;2022-09-02T12:05:45;27.20;59.10
2387;DHT22;49473;50.772;8.768;2022-09-02T12:11:00;26.00;60.00
2387;DHT22;49473;50.772;8.768;2022-09-02T12:13:35;26.50;61.10
2387;DHT22;49473;50.772;8.768;2022-09-02T12:16:35;27.20;59.70
2387;DHT22;49473;50.772;8.768;2022-09-02T12:19:38;28.10;57.90
2387;DHT22;49473;50.772;8.768;2022-09-02T12:22:24;27.80;56.90
2387;DHT22;49473;50.772;8.768;2022-09-02T12:24:53;26.60;59.20
2387;DHT22;49473;50.772;8.768;2022-09-02T12:27:29;27.00;59.20
2387;DHT22;49473;50.772;8.768;2022-09-02T12:29:59;26.70;58.70
2387;DHT22;49473;50.772;8.768;2022-09-02T12:33:09;25.70;59.00
2387;DHT22;49473;50.772;8.768;2022-09-02T12:35:50;24.90;61.10
2387;DHT22;49473;50.772;8.768;2022-09-02T12:38:37;24.70;62.00
2387;DHT22;49473;50.772;8.768;2022-09-02T12:41:23;25.40;62.20
2387;DHT22;49473;50.772;8.768;2022-09-02T12:46:58;26.40;60.80
2387;DHT22;49473;50.772;8.768;2022-09-02T12:49:37;27.00;58.40
2387;DHT22;49473;50.772;8.768;2022-09-02T12:52:08;27.20;58.90
2387;DHT22;49473;50.772;8.768;2022-09-02T12:54:41;26.80;58.60
2387;DHT22;49473;50.772;8.768;2022-09-02T12:57:12;27.50;58.10
2387;DHT22;49473;50.772;8.768;2022-09-02T12:59:41;29.10;56.50
2387;DHT22;49473;50.772;8.768;2022-09-02T13:02:35;30.70;54.40
2387;DHT22;49473;50.772;8.768;2022-09-02T13:05:16;32.60;53.30
2387;DHT22;49473;50.772;8.768;2022-09-02T13:08:27;34.80;51.60
2387;DHT22;49473;50.772;8.768;2022-09-02T13:14:40;32.20;49.10
2387;DHT22;49473;50.772;8.768;2022-09-02T13:17:21;32.10;50.60
2387;DHT22;49473;50.772;8.768;2022-09-02T13:20:14;30.60;51.10
2387;DHT22;49473;50.772;8.768;2022-09-02T13:23:06;28.80;52.80
2387;DHT22;49473;50.772;8.768;2022-09-02T13:28:55;27.70;54.30
2387;DHT22;49473;50.772;8.768;2022-09-02T13:31:26;26.90;54.70
2387;DHT22;49473;50.772;8.768;2022-09-02T13:33:57;25.90;55.30
2387;DHT22;49473;50.772;8.768;2022-09-02T13:36:28;25.60;56.00
2387;DHT22;49473;50.772;8.768;2022-09-02T13:38:55;25.60;55.90
2387;DHT22;49473;50.772;8.768;2022-09-02T13:41:29;25.90;56.00
2387;DHT22;49473;50.772;8.768;2022-09-02T13:44:07;25.80;55.50
2387;DHT22;49473;50.772;8.768;2022-09-02T13:46:42;25.60;56.10
2387;DHT22;49473;50.772;8.768;2022-09-02T13:49:17;25.30;56.60
2387;DHT22;49473;50.772;8.768;2022-09-02T13:51:46;25.40;56.50
2387;DHT22;49473;50.772;8.768;2022-09-02T13:54:22;25.60;57.10
2387;DHT22;49473;50.772;8.768;2022-09-02T13:56:50;26.60;55.30
2387;DHT22;49473;50.772;8.768;2022-09-02T13:59:34;26.20;55.30
2387;DHT22;49473;50.772;8.768;2022-09-02T14:02:17;26.10;55.80
2387;DHT22;49473;50.772;8.768;2022-09-02T14:04:45;25.90;55.80
2387;DHT22;49473;50.772;8.768;2022-09-02T14:07:14;26.00;56.30
2387;DHT22;49473;50.772;8.768;2022-09-02T14:09:44;25.80;56.20
2387;DHT22;49473;50.772;8.768;2022-09-02T14:12:12;25.40;56.40
2387;DHT22;49473;50.772;8.768;2022-09-02T14:14:40;25.20;57.00
2387;DHT22;49473;50.772;8.768;2022-09-02T14:17:17;25.00;57.00
2387;DHT22;49473;50.772;8.768;2022-09-02T14:19:44;25.00;57.30
2387;DHT22;49473;50.772;8.768;2022-09-02T14:22:22;24.70;56.80
2387;DHT22;49473;50.772;8.768;2022-09-02T14:24:49;24.40;57.20
2387;DHT22;49473;50.772;8.768;2022-09-02T14:27:19;24.20;57.70
2387;DHT22;49473;50.772;8.768;2022-09-02T14:29:52;24.30;58.30
2387;DHT22;49473;50.772;8.768;2022-09-02T14:32:23;24.50;57.80
2387;DHT22;49473;50.772;8.768;2022-09-02T14:35:07;24.70;58.20
2387;DHT22;49473;50.772;8.768;2022-09-02T14:37:48;24.80;57.80
2387;DHT22;49473;50.772;8.768;2022-09-02T14:40:14;24.40;58.00
2387;DHT22;49473;50.772;8.768;2022-09-02T14:42:44;24.10;58.70
2387;DHT22;49473;50.772;8.768;2022-09-02T14:45:11;24.00;59.00
2387;DHT22;49473;50.772;8.768;2022-09-02T14:47:39;23.70;59.00
2387;DHT22;49473;50.772;8.768;2022-09-02T14:50:09;23.50;59.10
2387;DHT22;49473;50.772;8.768;2022-09-02T14:52:46;23.60;59.50
2387;DHT22;49473;50.772;8.768;2022-09-02T14:55:47;24.10;59.10
2387;DHT22;49473;50.772;8.768;2022-09-02T14:58:17;24.20;58.80
2387;DHT22;49473;50.772;8.768;2022-09-02T15:00:46;24.30;58.70
2387;DHT22;49473;50.772;8.768;2022-09-02T15:03:15;24.10;58.70
2387;DHT22;49473;50.772;8.768;2022-09-02T15:05:42;24.00;59.10
2387;DHT22;49473;50.772;8.768;2022-09-02T15:08:11;23.70;59.40
2387;DHT22;49473;50.772;8.768;2022-09-02T15:10:39;23.40;59.40
2387;DHT22;49473;50.772;8.768;2022-09-02T15:13:08;23.40;59.70
2387;DHT22;49473;50.772;8.768;2022-09-02T15:15:36;23.60;59.30
2387;DHT22;49473;50.772;8.768;2022-09-02T15:18:03;23.70;59.50
2387;DHT22;49473;50.772;8.768;2022-09-02T15:20:30;23.90;59.20
2387;DHT22;49473;50.772;8.768;2022-09-02T15:22:57;23.90;59.10
2387;DHT22;49473;50.772;8.768;2022-09-02T15:25:25;24.00;59.00
2387;DHT22;49473;50.772;8.768;2022-09-02T15:27:53;24.20;58.70
2387;DHT22;49473;50.772;8.768;2022-09-02T15:30:20;24.30;58.70
2387;DHT22;49473;50.772;8.768;2022-09-02T15:32:47;24.10;58.90
2387;DHT22;49473;50.772;8.768;2022-09-02T15:35:15;24.10;59.20
2387;DHT22;49473;50.772;8.768;2022-09-02T15:37:42;24.10;58.60
2387;DHT22;49473;50.772;8.768;2022-09-02T15:40:09;24.00;58.60
2387;DHT22;49473;50.772;8.768;2022-09-02T15:42:38;24.00;58.80
2387;DHT22;49473;50.772;8.768;2022-09-02T15:45:07;24.00;58.90
2387;DHT22;49473;50.772;8.768;2022-09-02T15:47:35;23.90;58.80
2387;DHT22;49473;50.772;8.768;2022-09-02T15:50:02;24.00;59.40
2387;DHT22;49473;50.772;8.768;2022-09-02T15:52:29;24.00;59.40
2387;DHT22;49473;50.772;8.768;2022-09-02T15:54:56;23.90;59.00
2387;DHT22;49473;50.772;8.768;2022-09-02T15:57:23;23.80;59.10
2387;DHT22;49473;50.772;8.768;2022-09-02T15:59:52;23.80;59.40
2387;DHT22;49473;50.772;8.768;2022-09-02T16:02:19;23.60;59.70
2387;DHT22;49473;50.772;8.768;2022-09-02T16:04:46;23.50;59.50
2387;DHT22;49473;50.772;8.768;2022-09-02T16:07:12;23.50;59.80
2387;DHT22;49473;50.772;8.768;2022-09-02T16:09:39;23.60;60.20
2387;DHT22;49473;50.772;8.768;2022-09-02T16:12:06;23.50;60.00
2387;DHT22;49473;50.772;8.768;2022-09-02T16:14:34;23.40;59.50
2387;DHT22;49473;50.772;8.768;2022-09-02T16:17:02;23.40;59.40
2387;DHT22;49473;50.772;8.768;2022-09-02T16:19:29;23.40;59.80
2387;DHT22;49473;50.772;8.768;2022-09-02T16:21:56;23.40;59.50